createdAt,value
2023-03-11T00:01:32.027Z,3.35
2023-03-11T00:03:58.989Z,3.01
2023-03-11T00:06:25.520Z,3.56
2023-03-11T00:08:52.341Z,2.99
2023-03-11T00:11:19.781Z,3.41
2023-03-11T00:13:46.216Z,3.53
2023-03-11T00:16:12.685Z,3.44
2023-03-11T00:18:39.129Z,3.40
2023-03-11T00:21:05.656Z,2.86
2023-03-11T00:23:32.650Z,3.56
2023-03-11T00:26:01.139Z,2.74
2023-03-11T00:28:27.704Z,2.80
2023-03-11T00:30:54.468Z,2.86
2023-03-11T00:33:20.988Z,2.85
2023-03-11T00:35:47.646Z,3.04
2023-03-11T00:38:16.537Z,3.37
2023-03-11T00:40:44.761Z,3.35
2023-03-11T00:43:11.737Z,2.62
2023-03-11T00:45:38.161Z,3.00
2023-03-11T00:48:05.392Z,2.66
2023-03-11T00:50:33.988Z,2.75
2023-03-11T00:53:01.510Z,2.93
2023-03-11T00:55:30.863Z,2.36
2023-03-11T00:58:00.166Z,2.74
2023-03-11T01:00:28.574Z,2.86
2023-03-11T01:02:56.343Z,3.10
2023-03-11T01:05:27.073Z,2.98
2023-03-11T01:07:53.489Z,3.17
2023-03-11T01:10:20.494Z,3.54
2023-03-11T01:12:47.287Z,3.21
2023-03-11T01:15:26.619Z,3.29
2023-03-11T01:17:53.076Z,3.42
2023-03-11T01:20:19.789Z,3.45
2023-03-11T01:22:46.310Z,2.80
2023-03-11T01:25:15.019Z,3.03
2023-03-11T01:27:41.586Z,3.03
2023-03-11T01:30:09.494Z,3.13
2023-03-11T01:32:36.096Z,3.37
2023-03-11T01:35:02.542Z,3.07
2023-03-11T01:37:29.645Z,3.39
2023-03-11T01:39:56.057Z,2.36
2023-03-11T01:42:22.468Z,3.07
2023-03-11T01:44:48.859Z,2.96
2023-03-11T01:47:15.186Z,2.56
2023-03-11T01:49:42.172Z,3.17
2023-03-11T01:52:09.045Z,2.96
2023-03-11T01:54:39.570Z,2.27
2023-03-11T01:57:09.998Z,3.45
2023-03-11T01:59:41.883Z,3.06
2023-03-11T02:02:19.516Z,2.37
2023-03-11T02:04:46.508Z,2.99
2023-03-11T02:07:14.149Z,3.35
2023-03-11T02:09:41.773Z,3.24
2023-03-11T02:12:10.927Z,3.33
2023-03-11T02:14:41.867Z,3.17
2023-03-11T02:17:08.864Z,3.38
2023-03-11T02:19:48.338Z,3.41
2023-03-11T02:22:15.885Z,3.29
2023-03-11T02:25:03.099Z,3.10
2023-03-11T02:27:32.955Z,3.08
2023-03-11T02:30:00.960Z,3.43
2023-03-11T02:32:28.122Z,3.10
2023-03-11T02:34:54.661Z,3.09
2023-03-11T02:37:21.092Z,3.15
2023-03-11T02:39:50.558Z,3.39
2023-03-11T02:42:31.740Z,2.96
2023-03-11T02:45:01.011Z,2.29
2023-03-11T02:47:27.950Z,2.83
2023-03-11T02:49:56.272Z,2.56
2023-03-11T02:52:25.555Z,3.63
2023-03-11T02:54:51.990Z,3.15
2023-03-11T02:57:18.536Z,2.88
2023-03-11T02:59:45.027Z,2.75
2023-03-11T03:02:11.572Z,2.92
2023-03-11T03:04:37.998Z,3.30
2023-03-11T03:07:04.537Z,2.36
2023-03-11T03:09:31.249Z,2.93
2023-03-11T03:11:57.659Z,2.11
2023-03-11T03:14:24.109Z,2.68
2023-03-11T03:16:50.666Z,3.32
2023-03-11T03:19:17.175Z,3.25
2023-03-11T03:21:43.587Z,2.37
2023-03-11T03:24:10.037Z,2.08
2023-03-11T03:26:37.477Z,2.71
2023-03-11T03:29:05.440Z,2.09
2023-03-11T03:31:32.295Z,2.28
2023-03-11T03:33:59.102Z,2.76
2023-03-11T03:36:25.593Z,2.51
2023-03-11T03:38:56.646Z,2.92
2023-03-11T03:41:23.489Z,2.81
2023-03-11T03:43:50.037Z,2.61
2023-03-11T03:46:16.558Z,2.86
2023-03-11T03:48:43.144Z,3.22
2023-03-11T03:51:12.684Z,3.19
2023-03-11T03:53:40.152Z,3.66
2023-03-11T03:56:12.378Z,2.68
2023-03-11T03:58:39.442Z,2.69
2023-03-11T04:01:06.937Z,3.10
2023-03-11T04:03:35.112Z,2.97
2023-03-11T04:06:16.482Z,3.13
2023-03-11T04:08:43.030Z,2.75
2023-03-11T04:11:09.505Z,3.00
2023-03-11T04:13:36.095Z,2.48
2023-03-11T04:16:07.408Z,3.02
2023-03-11T04:18:35.336Z,2.43
2023-03-11T04:21:06.600Z,2.22
2023-03-11T04:23:33.703Z,2.50
2023-03-11T04:26:00.493Z,3.23
2023-03-11T04:28:27.080Z,2.84
2023-03-11T04:30:53.560Z,2.61
2023-03-11T04:33:20.582Z,2.23
2023-03-11T04:35:47.188Z,2.32
2023-03-11T04:38:13.657Z,3.11
2023-03-11T04:40:40.282Z,3.03
2023-03-11T04:43:07.089Z,3.80
2023-03-11T04:45:33.590Z,3.51
2023-03-11T04:48:00.013Z,2.09
2023-03-11T04:50:26.517Z,3.06
2023-03-11T04:52:52.996Z,2.28
2023-03-11T04:55:19.393Z,2.94
2023-03-11T04:57:45.827Z,3.31
2023-03-11T05:00:13.318Z,2.60
2023-03-11T05:02:40.223Z,2.80
2023-03-11T05:05:08.342Z,2.65
2023-03-11T05:07:35.574Z,2.34
2023-03-11T05:10:03.373Z,3.52
2023-03-11T05:12:29.775Z,3.26
2023-03-11T05:14:56.335Z,3.55
2023-03-11T05:17:22.849Z,3.43
2023-03-11T05:19:49.370Z,3.01
2023-03-11T05:22:15.762Z,2.73
2023-03-11T05:24:42.179Z,3.10
2023-03-11T05:27:08.744Z,3.40
2023-03-11T05:29:35.214Z,2.91
2023-03-11T05:32:01.627Z,3.40
2023-03-11T05:34:28.145Z,3.72
2023-03-11T05:36:54.611Z,3.63
2023-03-11T05:39:21.066Z,3.69
2023-03-11T05:41:47.532Z,2.68
2023-03-11T05:44:14.084Z,3.70
2023-03-11T05:46:40.560Z,2.80
2023-03-11T05:49:07.002Z,3.73
2023-03-11T05:51:33.511Z,3.67
2023-03-11T05:54:00.451Z,3.09
2023-03-11T05:56:26.920Z,3.39
2023-03-11T05:58:53.357Z,3.19
2023-03-11T06:01:20.786Z,2.41
2023-03-11T06:03:47.283Z,3.37
2023-03-11T06:06:14.346Z,3.24
2023-03-11T06:08:45.922Z,2.74
2023-03-11T06:11:13.488Z,2.86
2023-03-11T06:13:40.043Z,2.26
2023-03-11T06:16:06.970Z,2.67
2023-03-11T06:18:33.559Z,3.11
2023-03-11T06:21:01.706Z,3.26
2023-03-11T06:23:29.069Z,2.58
2023-03-11T06:26:04.668Z,3.53
2023-03-11T06:28:31.864Z,2.82
2023-03-11T06:31:08.229Z,2.37
2023-03-11T06:33:34.700Z,2.76
2023-03-11T06:36:02.969Z,2.98
2023-03-11T06:38:30.184Z,2.82
2023-03-11T06:41:01.121Z,2.66
2023-03-11T06:43:27.605Z,2.58
2023-03-11T06:45:54.154Z,2.28
2023-03-11T06:48:20.684Z,2.72
2023-03-11T06:50:57.662Z,2.81
2023-03-11T06:53:26.489Z,2.18
2023-03-11T06:56:04.137Z,2.87
2023-03-11T06:58:32.137Z,2.90
2023-03-11T07:01:03.898Z,2.17
2023-03-11T07:03:30.537Z,2.48
2023-03-11T07:05:58.443Z,2.98
2023-03-11T07:08:25.742Z,2.96
2023-03-11T07:11:01.037Z,3.38
2023-03-11T07:13:28.549Z,3.57
2023-03-11T07:16:13.174Z,3.70
2023-03-11T07:18:39.656Z,2.97
2023-03-11T07:21:08.680Z,3.43
2023-03-11T07:23:35.905Z,3.21
2023-03-11T07:26:02.518Z,3.88
2023-03-11T07:28:29.624Z,2.90
2023-03-11T07:30:56.100Z,2.39
2023-03-11T07:33:26.135Z,3.37
2023-03-11T07:35:53.147Z,2.44
2023-03-11T07:38:19.889Z,3.13
2023-03-11T07:40:46.404Z,2.70
2023-03-11T07:43:12.897Z,2.40
2023-03-11T07:45:39.365Z,3.13
2023-03-11T07:48:06.015Z,2.45
2023-03-11T07:50:32.471Z,2.39
2023-03-11T07:52:58.859Z,2.74
2023-03-11T07:55:25.464Z,3.52
2023-03-11T07:57:52.051Z,3.40
2023-03-11T08:00:19.135Z,3.64
2023-03-11T08:02:45.748Z,2.47
2023-03-11T08:05:12.626Z,3.55
2023-03-11T08:07:39.367Z,3.93
2023-03-11T08:10:06.647Z,3.77
2023-03-11T08:12:33.122Z,3.55
2023-03-11T08:14:59.515Z,3.79
2023-03-11T08:17:25.917Z,3.91
2023-03-11T08:19:52.376Z,3.52
2023-03-11T08:22:18.838Z,3.78
2023-03-11T08:24:45.258Z,3.50
2023-03-11T08:27:12.325Z,2.92
2023-03-11T08:29:38.802Z,3.49
2023-03-11T08:32:05.655Z,3.75
2023-03-11T08:34:32.898Z,3.67
2023-03-11T08:36:59.564Z,3.83
2023-03-11T08:39:25.974Z,2.82
2023-03-11T08:41:52.394Z,3.26
2023-03-11T08:44:18.834Z,3.55
2023-03-11T08:46:45.725Z,3.54
2023-03-11T08:49:12.233Z,3.48
2023-03-11T08:51:38.683Z,3.64
2023-03-11T08:54:05.691Z,2.90
2023-03-11T08:56:32.203Z,2.92
2023-03-11T08:58:58.836Z,3.57
2023-03-11T09:01:25.645Z,3.77
2023-03-11T09:03:52.605Z,3.73
2023-03-11T09:06:19.198Z,3.08
2023-03-11T09:08:47.063Z,2.74
2023-03-11T09:13:49.841Z,3.17
2023-03-11T09:16:19.063Z,4.21
2023-03-11T09:18:45.895Z,3.97
2023-03-11T09:21:12.981Z,4.11
2023-03-11T09:23:43.501Z,3.33
2023-03-11T09:26:10.627Z,4.29
2023-03-11T09:28:37.119Z,4.54
2023-03-11T09:31:03.696Z,4.52
2023-03-11T09:33:30.248Z,3.41
2023-03-11T09:35:58.217Z,3.49
2023-03-11T09:38:24.681Z,4.63
2023-03-11T09:41:02.668Z,4.53
2023-03-11T09:43:55.955Z,4.13
2023-03-11T09:46:40.724Z,4.24
2023-03-11T09:49:41.612Z,3.77
2023-03-11T09:52:16.384Z,4.33
2023-03-11T09:54:47.194Z,3.93
2023-03-11T09:57:19.379Z,3.75
2023-03-11T09:59:46.882Z,4.19
2023-03-11T10:02:20.099Z,3.83
2023-03-11T10:05:03.544Z,4.24
2023-03-11T10:07:39.426Z,5.13
2023-03-11T10:10:07.314Z,5.00
2023-03-11T10:12:39.706Z,4.85
2023-03-11T10:15:24.866Z,5.75
2023-03-11T10:18:20.396Z,5.51
2023-03-11T10:21:00.163Z,6.08
2023-03-11T10:23:31.196Z,4.35
2023-03-11T10:26:08.012Z,5.71
2023-03-11T10:29:07.534Z,4.25
2023-03-11T10:31:57.126Z,4.74
2023-03-11T10:34:34.226Z,4.12
2023-03-11T10:37:09.265Z,4.95
2023-03-11T10:39:36.501Z,3.62
2023-03-11T10:42:05.462Z,3.78
2023-03-11T10:44:38.487Z,5.04
2023-03-11T10:47:06.276Z,5.26
2023-03-11T10:49:32.909Z,5.51
2023-03-11T10:51:59.494Z,4.39
2023-03-11T10:54:26.581Z,4.23
2023-03-11T10:57:03.670Z,3.98
2023-03-11T10:59:31.982Z,5.15
2023-03-11T11:02:01.070Z,4.28
2023-03-11T11:04:29.906Z,4.21
2023-03-11T11:06:56.597Z,5.71
2023-03-11T11:09:26.823Z,5.28
2023-03-11T11:12:04.812Z,4.93
2023-03-11T11:14:52.642Z,5.29
2023-03-11T11:17:31.588Z,5.15
2023-03-11T11:19:59.298Z,6.00
2023-03-11T11:22:25.941Z,4.10
2023-03-11T11:24:54.992Z,5.47
2023-03-11T11:27:22.610Z,4.95
2023-03-11T11:30:09.561Z,4.65
2023-03-11T11:32:37.276Z,5.80
2023-03-11T11:35:12.773Z,5.78
2023-03-11T11:37:43.710Z,5.44
2023-03-11T11:40:16.582Z,6.47
2023-03-11T11:42:54.924Z,5.73
2023-03-11T11:45:39.960Z,6.05
2023-03-11T11:48:13.152Z,5.70
2023-03-11T11:50:47.920Z,6.49
2023-03-11T11:53:35.795Z,5.71
2023-03-11T11:56:02.741Z,6.36
2023-03-11T11:58:31.227Z,6.73
2023-03-11T12:01:13.013Z,6.37
2023-03-11T12:04:06.666Z,6.81
2023-03-11T12:06:35.771Z,6.67
2023-03-11T12:09:11.514Z,6.58
2023-03-11T12:11:42.060Z,5.80
2023-03-11T12:14:21.515Z,5.15
2023-03-11T12:16:58.633Z,4.94
2023-03-11T12:19:33.944Z,6.16
2023-03-11T12:22:00.462Z,6.03
2023-03-11T12:25:02.574Z,6.44
2023-03-11T12:27:41.385Z,5.42
2023-03-11T12:30:18.241Z,4.79
2023-03-11T12:32:53.151Z,5.55
2023-03-11T12:35:33.037Z,6.42
2023-03-11T12:38:13.504Z,5.30
2023-03-11T12:41:09.250Z,5.29
2023-03-11T12:43:35.659Z,6.39
2023-03-11T12:46:04.465Z,6.43
2023-03-11T12:48:46.746Z,5.46
2023-03-11T12:51:37.314Z,5.19
2023-03-11T12:54:32.051Z,5.93
2023-03-11T12:57:05.497Z,5.08
2023-03-11T12:59:38.435Z,5.47
2023-03-11T13:02:07.652Z,5.57
2023-03-11T13:04:44.138Z,5.28
2023-03-11T13:07:22.525Z,5.05
2023-03-11T13:10:35.069Z,5.34
2023-03-11T13:13:02.062Z,5.26
2023-03-11T13:15:36.418Z,6.84
2023-03-11T13:18:23.390Z,6.75
2023-03-11T13:20:57.206Z,7.01
2023-03-11T13:23:29.724Z,5.90
2023-03-11T13:26:14.190Z,6.46
2023-03-11T13:28:58.582Z,7.18
2023-03-11T13:32:02.721Z,6.05
2023-03-11T13:34:59.668Z,5.87
2023-03-11T13:37:35.007Z,5.53
2023-03-11T13:40:23.587Z,6.10
2023-03-11T13:42:51.987Z,6.82
2023-03-11T13:45:29.791Z,6.44
2023-03-11T13:47:59.967Z,6.15
2023-03-11T13:50:31.650Z,6.55
2023-03-11T13:53:01.166Z,5.24
2023-03-11T13:55:40.220Z,5.68
2023-03-11T13:58:17.373Z,6.05
2023-03-11T14:00:49.989Z,5.40
2023-03-11T14:03:21.970Z,5.28
2023-03-11T14:05:55.843Z,6.10
2023-03-11T14:08:27.260Z,6.63
2023-03-11T14:11:03.480Z,5.99
2023-03-11T14:13:31.956Z,7.03
2023-03-11T14:16:08.749Z,5.68
2023-03-11T14:18:35.385Z,6.00
2023-03-11T14:21:04.608Z,6.21
2023-03-11T14:23:35.163Z,6.24
2023-03-11T14:26:07.623Z,6.06
2023-03-11T14:28:38.654Z,7.03
2023-03-11T14:31:05.893Z,6.58
2023-03-11T14:33:32.424Z,6.73
2023-03-11T14:36:02.556Z,5.90
2023-03-11T14:38:31.649Z,7.14
2023-03-11T14:41:04.629Z,6.09
2023-03-11T14:43:39.117Z,7.56
2023-03-11T14:46:07.426Z,7.58
2023-03-11T14:48:39.022Z,7.17
2023-03-11T14:51:14.801Z,6.82
2023-03-11T14:53:46.668Z,7.67
2023-03-11T14:56:19.041Z,6.67
2023-03-11T14:59:12.465Z,6.53
2023-03-11T15:01:41.718Z,5.97
2023-03-11T15:04:32.795Z,6.40
2023-03-11T15:07:00.457Z,6.59
2023-03-11T15:09:29.253Z,7.21
2023-03-11T15:11:59.123Z,7.68
2023-03-11T15:14:33.986Z,6.43
2023-03-11T15:17:37.087Z,6.87
2023-03-11T15:20:23.705Z,6.51
2023-03-11T15:23:00.688Z,6.81
2023-03-11T15:25:29.789Z,5.76
2023-03-11T15:27:56.544Z,6.78
2023-03-11T15:30:31.444Z,6.02
2023-03-11T15:32:58.899Z,6.04
2023-03-11T15:35:30.862Z,6.05
2023-03-11T15:38:28.416Z,6.52
2023-03-11T15:41:01.083Z,5.57
2023-03-11T15:43:33.051Z,6.40
2023-03-11T15:46:02.285Z,7.02
2023-03-11T15:48:29.995Z,5.95
2023-03-11T15:50:58.813Z,6.85
2023-03-11T15:53:27.587Z,6.43
2023-03-11T15:56:06.230Z,6.16
2023-03-11T15:58:33.592Z,6.41
2023-03-11T16:01:00.249Z,6.08
2023-03-11T16:03:26.729Z,5.97
2023-03-11T16:05:53.228Z,6.01
2023-03-11T16:08:19.721Z,5.73
2023-03-11T16:10:46.319Z,5.58
2023-03-11T16:13:15.022Z,5.98
2023-03-11T16:15:42.637Z,6.93
2023-03-11T16:18:09.958Z,5.61
2023-03-11T16:20:46.406Z,6.20
2023-03-11T16:23:50.705Z,6.59
2023-03-11T16:26:18.215Z,5.76
2023-03-11T16:28:44.740Z,5.88
2023-03-11T16:31:11.225Z,5.99
2023-03-11T16:33:37.697Z,6.30
2023-03-11T16:36:05.360Z,5.49
2023-03-11T16:38:43.046Z,5.99
2023-03-11T16:41:09.523Z,5.54
2023-03-11T16:43:35.975Z,5.27
2023-03-11T16:46:02.361Z,5.94
2023-03-11T16:48:28.828Z,5.92
2023-03-11T16:50:55.307Z,5.90
2023-03-11T16:53:21.967Z,6.03
2023-03-11T16:55:48.588Z,6.10
2023-03-11T16:58:15.449Z,6.78
2023-03-11T17:00:42.480Z,5.91
2023-03-11T17:03:12.290Z,5.79
2023-03-11T17:05:38.880Z,6.43
2023-03-11T17:08:06.315Z,6.06
2023-03-11T17:10:38.192Z,6.17
2023-03-11T17:13:05.968Z,6.44
2023-03-11T17:15:34.504Z,6.35
2023-03-11T17:18:01.787Z,5.77
2023-03-11T17:20:28.208Z,5.54
2023-03-11T17:22:54.625Z,6.10
2023-03-11T17:25:21.129Z,5.91
2023-03-11T17:27:47.732Z,5.76
2023-03-11T17:30:19.395Z,6.05
2023-03-11T17:32:50.956Z,5.53
2023-03-11T17:35:17.543Z,6.10
2023-03-11T17:37:43.930Z,6.24
2023-03-11T17:40:11.150Z,5.96
2023-03-11T17:42:39.679Z,5.69
2023-03-11T17:45:06.765Z,6.00
2023-03-11T17:47:33.440Z,6.00
2023-03-11T17:50:00.112Z,4.96
2023-03-11T17:52:26.567Z,5.39
2023-03-11T17:54:53.520Z,5.67
2023-03-11T17:57:20.039Z,5.55
2023-03-11T17:59:50.482Z,5.11
2023-03-11T18:02:16.937Z,5.02
2023-03-11T18:04:45.951Z,4.70
2023-03-11T18:07:12.926Z,5.58
2023-03-11T18:09:39.395Z,5.57
2023-03-11T18:12:06.773Z,5.28
2023-03-11T18:14:33.524Z,5.26
2023-03-11T18:16:59.938Z,5.57
2023-03-11T18:19:26.351Z,5.38
2023-03-11T18:21:52.795Z,5.18
2023-03-11T18:24:19.290Z,5.32
2023-03-11T18:26:45.704Z,5.24
2023-03-11T18:29:12.334Z,5.36
2023-03-11T18:31:39.492Z,5.03
2023-03-11T18:34:12.140Z,5.18
2023-03-11T18:36:39.077Z,5.37
2023-03-11T18:39:06.445Z,5.31
2023-03-11T18:41:35.502Z,5.17
2023-03-11T18:44:02.704Z,5.42
2023-03-11T18:46:33.745Z,5.42
2023-03-11T18:49:02.007Z,5.22
2023-03-11T18:51:31.059Z,5.15
2023-03-11T18:53:57.768Z,5.17
2023-03-11T18:56:24.260Z,5.34
2023-03-11T18:58:50.740Z,5.36
2023-03-11T19:01:21.566Z,5.16
2023-03-11T19:03:56.792Z,5.34
2023-03-11T19:06:24.815Z,5.36
2023-03-11T19:08:51.905Z,5.24
2023-03-11T19:11:20.717Z,5.00
2023-03-11T19:13:48.290Z,4.67
2023-03-11T19:16:17.876Z,5.04
2023-03-11T19:18:44.380Z,5.23
2023-03-11T19:21:12.420Z,4.98
2023-03-11T19:23:38.942Z,5.20
2023-03-11T19:26:06.037Z,5.13
2023-03-11T19:28:32.679Z,4.95
2023-03-11T19:30:59.714Z,5.08
2023-03-11T19:33:26.478Z,5.06
2023-03-11T19:36:01.088Z,5.12
2023-03-11T19:38:28.448Z,5.14
2023-03-11T19:41:07.080Z,5.10
2023-03-11T19:43:38.226Z,4.17
2023-03-11T19:46:06.344Z,4.79
2023-03-11T19:48:33.124Z,4.83
2023-03-11T19:50:59.905Z,4.97
2023-03-11T19:53:27.263Z,4.97
2023-03-11T19:55:56.325Z,4.98
2023-03-11T19:58:24.226Z,5.03
2023-03-11T20:00:51.190Z,4.82
2023-03-11T20:03:18.610Z,4.78
2023-03-11T20:05:46.860Z,4.95
2023-03-11T20:08:16.899Z,4.84
2023-03-11T20:10:46.493Z,4.80
2023-03-11T20:13:14.416Z,4.62
2023-03-11T20:15:41.159Z,4.64
2023-03-11T20:18:07.825Z,4.67
2023-03-11T20:20:37.290Z,4.79
2023-03-11T20:23:03.951Z,4.72
2023-03-11T20:25:32.323Z,4.01
2023-03-11T20:27:59.953Z,4.59
2023-03-11T20:30:27.303Z,4.77
2023-03-11T20:32:54.354Z,4.58
2023-03-11T20:35:21.659Z,4.69
2023-03-11T20:37:48.239Z,4.60
2023-03-11T20:40:16.477Z,4.69
2023-03-11T20:42:46.704Z,4.64
2023-03-11T20:45:21.484Z,4.63
2023-03-11T20:47:49.230Z,4.50
2023-03-11T20:50:15.999Z,4.77
2023-03-11T20:52:42.608Z,4.72
2023-03-11T20:55:10.193Z,4.48
2023-03-11T20:57:37.432Z,4.73
2023-03-11T21:00:11.540Z,4.77
2023-03-11T21:02:39.924Z,4.73
2023-03-11T21:05:08.117Z,4.78
2023-03-11T21:07:34.675Z,4.73
2023-03-11T21:10:02.109Z,4.67
2023-03-11T21:12:31.125Z,4.71
2023-03-11T21:14:57.944Z,4.48
2023-03-11T21:17:24.545Z,4.64
2023-03-11T21:19:51.057Z,4.63
2023-03-11T21:22:17.591Z,4.73
2023-03-11T21:24:45.223Z,4.41
2023-03-11T21:27:11.806Z,4.67
2023-03-11T21:29:38.427Z,4.64
2023-03-11T21:32:05.222Z,4.38
2023-03-11T21:34:31.717Z,4.32
2023-03-11T21:36:58.426Z,4.23
2023-03-11T21:39:25.108Z,4.39
2023-03-11T21:41:53.289Z,4.08
2023-03-11T21:44:20.023Z,4.22
2023-03-11T21:46:46.670Z,4.08
2023-03-11T21:49:13.228Z,4.04
2023-03-11T21:51:39.691Z,4.29
2023-03-11T21:54:06.316Z,4.22
2023-03-11T21:56:32.873Z,4.27
2023-03-11T21:58:59.299Z,4.08
2023-03-11T22:01:25.859Z,4.16
2023-03-11T22:03:52.478Z,4.24
2023-03-11T22:06:19.109Z,4.29
2023-03-11T22:08:45.604Z,4.46
2023-03-11T22:11:17.582Z,4.32
2023-03-11T22:13:46.680Z,4.28
2023-03-11T22:16:13.853Z,3.97
2023-03-11T22:18:40.551Z,4.30
2023-03-11T22:21:09.373Z,3.91
2023-03-11T22:23:36.868Z,4.06
2023-03-11T22:26:03.529Z,3.65
2023-03-11T22:28:30.855Z,4.18
2023-03-11T22:30:57.326Z,4.13
2023-03-11T22:33:23.920Z,3.97
2023-03-11T22:35:53.383Z,3.99
2023-03-11T22:38:20.063Z,3.95
2023-03-11T22:40:46.549Z,4.07
2023-03-11T22:43:13.254Z,4.24
2023-03-11T22:45:39.884Z,4.19
2023-03-11T22:48:06.809Z,4.30
2023-03-11T22:50:33.266Z,4.39
2023-03-11T22:52:59.888Z,4.29
2023-03-11T22:55:26.414Z,4.07
2023-03-11T22:57:52.932Z,3.99
2023-03-11T23:00:22.062Z,4.31
2023-03-11T23:02:53.217Z,4.31
2023-03-11T23:05:19.965Z,4.44
2023-03-11T23:07:46.483Z,3.93
2023-03-11T23:10:14.592Z,4.23
2023-03-11T23:12:41.675Z,4.24
2023-03-11T23:15:11.261Z,4.05
2023-03-11T23:17:37.711Z,4.23
2023-03-11T23:20:05.876Z,4.10
2023-03-11T23:22:35.776Z,4.19
2023-03-11T23:25:04.588Z,4.33
2023-03-11T23:27:31.231Z,4.37
2023-03-11T23:29:57.666Z,4.13
2023-03-11T23:32:24.166Z,4.13
2023-03-11T23:34:50.666Z,4.22
2023-03-11T23:37:17.160Z,4.35
2023-03-11T23:39:43.630Z,4.23
2023-03-11T23:42:24.490Z,3.98
2023-03-11T23:44:52.316Z,4.17
2023-03-11T23:47:18.820Z,3.85
2023-03-11T23:49:45.214Z,3.81
2023-03-11T23:52:11.727Z,3.50
2023-03-11T23:54:38.220Z,3.48
2023-03-11T23:57:04.720Z,3.66
2023-03-11T23:59:31.193Z,3.54
